Time;durP1;ratioP1;P1;durP2;ratioP2;P2;SDS_P1;SDS_P2;PMS_P1;PMS_P2;Temp;Humidity;BMP_temperature;BMP_pressure;BME280_temperature;BME280_humidity;BME280_pressure;Samples;Min_cycle;Max_cycle;Signal;HPM_P1;HPM_P2
2023/11/17 00:00:31;;;;;;;8.20;4.63;;;;;;;11.10;100.00;99459.94;5112412;28;20356;-42
2023/11/17 00:03:00;;;;;;;8.70;4.65;;;;;;;11.15;100.00;99462.25;5112303;28;20135;-43
2023/11/17 00:05:28;;;;;;;8.80;5.00;;;;;;;11.03;100.00;99455.19;5112221;28;20039;-43
2023/11/17 00:07:56;;;;;;;13.40;5.47;;;;;;;11.16;100.00;99447.94;5112034;28;20047;-44
2023/11/17 00:10:25;;;;;;;11.30;4.43;;;;;;;11.05;100.00;99442.56;5111948;28;20054;-44
2023/11/17 00:12:53;;;;;;;10.25;4.60;;;;;;;10.96;100.00;99441.44;5111864;28;20065;-42
2023/11/17 00:15:22;;;;;;;8.68;4.97;;;;;;;11.05;100.00;99445.22;5111623;28;20131;-44
2023/11/17 00:17:53;;;;;;;7.57;4.63;;;;;;;11.05;100.00;99445.22;5111966;28;20058;-45
2023/11/17 00:20:22;;;;;;;11.15;5.07;;;;;;;11.11;100.00;99442.13;5111989;28;20032;-43
2023/11/17 00:22:50;;;;;;;8.07;4.60;;;;;;;11.12;100.00;99438.47;5111871;28;20044;-44
2023/11/17 00:25:18;;;;;;;8.60;5.00;;;;;;;11.10;100.00;99437.75;5111732;28;20101;-43
2023/11/17 00:27:47;;;;;;;9.75;4.72;;;;;;;11.10;100.00;99445.75;5111879;28;20090;-44
2023/11/17 00:30:15;;;;;;;10.30;5.43;;;;;;;11.15;100.00;99446.25;5111945;28;20040;-43
2023/11/17 00:32:43;;;;;;;8.57;4.70;;;;;;;11.08;100.00;99439.66;5111828;28;20044;-44
2023/11/17 00:35:13;;;;;;;11.60;5.10;;;;;;;11.19;100.00;99439.69;5111855;28;20047;-44
2023/11/17 00:37:43;;;;;;;8.52;5.03;;;;;;;11.10;100.00;99443.09;5111498;28;20094;-44
2023/11/17 00:40:12;;;;;;;8.63;4.55;;;;;;;10.89;100.00;99438.34;5111633;28;20488;-44
2023/11/17 00:42:40;;;;;;;11.40;5.47;;;;;;;10.65;100.00;99434.84;5111846;28;20047;-44
2023/11/17 00:45:10;;;;;;;8.05;4.70;;;;;;;10.67;100.00;99424.91;5111917;28;20182;-45
2023/11/17 00:47:39;;;;;;;8.50;5.38;;;;;;;10.80;100.00;99420.38;5111656;28;20075;-44
2023/11/17 00:50:11;;;;;;;9.00;4.95;;;;;;;10.88;100.00;99419.81;5111684;28;20052;-43
2023/11/17 00:52:43;;;;;;;9.43;4.97;;;;;;;10.81;100.00;99408.75;5111614;28;20194;-43
2023/11/17 00:55:13;;;;;;;9.15;5.00;;;;;;;10.94;100.00;99416.69;5112078;28;20082;-43
2023/11/17 00:57:42;;;;;;;9.23;4.60;;;;;;;10.96;100.00;99408.56;5111692;28;20052;-44
2023/11/17 01:00:12;;;;;;;9.07;4.82;;;;;;;11.05;100.00;99403.38;5111802;28;20050;-42
2023/11/17 01:02:42;;;;;;;9.02;5.00;;;;;;;11.06;100.00;99399.75;5111714;28;20044;-43
2023/11/17 01:05:10;;;;;;;10.35;4.55;;;;;;;11.15;100.00;99387.53;5111310;28;20040;-44
2023/11/17 01:07:40;;;;;;;8.55;4.10;;;;;;;11.13;100.00;99384.13;5111336;28;20051;-43
2023/11/17 01:10:10;;;;;;;8.55;4.63;;;;;;;11.19;100.00;99383.63;5111412;28;20086;-43
2023/11/17 01:12:38;;;;;;;9.60;4.40;;;;;;;11.26;100.00;99378.69;5111317;28;20047;-44
2023/11/17 01:15:08;;;;;;;7.90;4.50;;;;;;;11.23;100.00;99363.78;5111356;28;20051;-43
2023/11/17 01:17:36;;;;;;;8.02;4.38;;;;;;;11.08;100.00;99370.28;5111217;28;20065;-43
2023/11/17 01:20:09;;;;;;;9.52;4.57;;;;;;;11.13;100.00;99362.78;5111684;28;20044;-43
2023/11/17 01:22:38;;;;;;;7.75;4.63;;;;;;;11.24;100.00;99361.94;5111789;28;20048;-43
2023/11/17 01:25:06;;;;;;;7.78;4.20;;;;;;;11.28;100.00;99361.59;5111643;28;20039;-48
2023/11/17 01:27:36;;;;;;;8.65;4.50;;;;;;;11.31;100.00;99356.03;5115277;28;20052;-44
2023/11/17 01:30:05;;;;;;;8.40;4.63;;;;;;;11.18;100.00;99355.25;5114929;28;20044;-44
2023/11/17 01:32:34;;;;;;;8.45;4.20;;;;;;;11.14;100.00;99348.47;5115617;28;20040;-44
2023/11/17 01:35:03;;;;;;;8.15;4.25;;;;;;;11.10;100.00;99347.84;5115430;28;20055;-42
2023/11/17 01:37:32;;;;;;;8.85;5.03;;;;;;;11.14;100.00;99343.97;5115142;28;20694;-43
2023/11/17 01:40:00;;;;;;;9.05;4.85;;;;;;;11.17;100.00;99332.19;5115185;28;20044;-44
2023/11/17 01:42:33;;;;;;;7.40;4.47;;;;;;;11.15;100.00;99328.81;5114851;28;20099;-43
2023/11/17 01:45:07;;;;;;;9.27;4.60;;;;;;;11.27;100.00;99319.84;5115158;28;20408;-43
2023/11/17 01:47:40;;;;;;;8.65;4.85;;;;;;;11.12;100.00;99321.91;5114878;28;20276;-43
2023/11/17 01:50:12;;;;;;;9.23;4.90;;;;;;;11.14;100.00;99321.78;5114948;28;20087;-44
2023/11/17 01:52:43;;;;;;;9.77;4.93;;;;;;;11.17;100.00;99316.19;5114832;28;20051;-43
2023/11/17 01:55:12;;;;;;;9.85;4.82;;;;;;;11.20;100.00;99309.78;5114501;28;20047;-43
2023/11/17 01:57:42;;;;;;;9.57;5.15;;;;;;;11.22;100.00;99314.03;5114828;28;20062;-44
2023/11/17 02:00:14;;;;;;;9.23;4.75;;;;;;;11.19;100.00;99322.25;5114533;28;20078;-42
2023/11/17 02:02:45;;;;;;;8.13;5.10;;;;;;;11.14;100.00;99321.78;5114510;28;20047;-43
2023/11/17 02:05:15;;;;;;;9.32;5.22;;;;;;;11.07;100.00;99321.38;5114573;28;20047;-44
2023/11/17 02:07:54;;;;;;;8.40;5.60;;;;;;;11.03;100.00;99305.75;5114272;28;20051;-44
2023/11/17 02:10:28;;;;;;;9.13;5.22;;;;;;;11.01;100.00;99300.53;5114514;28;20040;-44
2023/11/17 02:13:06;;;;;;;9.57;5.10;;;;;;;11.02;100.00;99301.38;5114893;28;20048;-44
2023/11/17 02:15:39;;;;;;;10.50;5.35;;;;;;;10.86;100.00;99291.88;5114368;28;20453;-44
2023/11/17 02:18:10;;;;;;;8.70;5.10;;;;;;;10.58;100.00;99281.59;5114043;28;20446;-44
2023/11/17 02:20:41;;;;;;;9.55;5.07;;;;;;;10.60;100.00;99282.31;5114439;28;20059;-49
2023/11/17 02:23:15;;;;;;;8.93;5.30;;;;;;;10.76;100.00;99276.69;5114384;28;20050;-45
2023/11/17 02:25:59;;;;;;;10.57;5.50;;;;;;;10.56;100.00;99268.38;5114269;28;20048;-45
2023/11/17 02:28:36;;;;;;;7.95;5.03;;;;;;;10.45;100.00;99264.81;5113910;28;20085;-43
2023/11/17 02:31:15;;;;;;;9.20;5.05;;;;;;;10.49;100.00;99260.94;5114386;28;20100;-44
2023/11/17 02:33:48;;;;;;;11.05;6.00;;;;;;;10.67;100.00;99259.56;5114290;28;20046;-44
2023/11/17 02:36:19;;;;;;;8.90;5.20;;;;;;;10.65;100.00;99256.16;5113980;28;20048;-42
2023/11/17 02:38:56;;;;;;;10.80;5.38;;;;;;;10.67;100.00;99254.22;5113289;28;20092;-44
2023/11/17 02:41:32;;;;;;;9.65;5.10;;;;;;;10.70;100.00;99248.66;5113702;28;20048;-43
2023/11/17 02:44:03;;;;;;;8.82;4.82;;;;;;;10.75;100.00;99241.16;5113841;28;20075;-44
2023/11/17 02:46:33;;;;;;;8.82;5.05;;;;;;;10.76;100.00;99245.53;5113852;28;20054;-44
2023/11/17 02:49:03;;;;;;;11.13;5.57;;;;;;;10.81;100.00;99234.50;5113747;28;20044;-44
2023/11/17 02:51:43;;;;;;;9.07;5.45;;;;;;;10.82;100.00;99226.38;5113643;28;20040;-44
2023/11/17 02:54:13;;;;;;;10.75;5.30;;;;;;;10.80;100.00;99233.63;5113732;28;20054;-43
2023/11/17 02:56:42;;;;;;;10.90;5.55;;;;;;;10.85;100.00;99226.13;5113814;28;20127;-43
2023/11/17 02:59:13;;;;;;;10.88;5.70;;;;;;;10.75;100.00;99221.63;5113463;28;20135;-44
2023/11/17 03:01:44;;;;;;;9.02;5.55;;;;;;;10.68;100.00;99223.06;5113518;28;20039;-44
2023/11/17 03:04:15;;;;;;;11.38;5.57;;;;;;;10.68;100.00;99221.25;5113299;28;20041;-45
2023/11/17 03:06:46;;;;;;;10.45;5.13;;;;;;;10.68;100.00;99221.25;5113478;28;20043;-44
2023/11/17 03:09:15;;;;;;;11.18;5.47;;;;;;;10.82;100.00;99215.72;5113184;28;20432;-46
2023/11/17 03:11:45;;;;;;;10.27;5.13;;;;;;;10.80;100.00;99206.13;5113134;28;20051;-44
2023/11/17 03:14:13;;;;;;;7.72;4.90;;;;;;;10.87;100.00;99208.19;5113151;28;20496;-44
2023/11/17 03:16:43;;;;;;;8.75;5.18;;;;;;;10.77;100.00;99204.53;5113176;28;20065;-44
2023/11/17 03:19:11;;;;;;;9.70;5.72;;;;;;;10.77;100.00;99199.22;5113274;28;20055;-44
2023/11/17 03:21:41;;;;;;;8.35;5.00;;;;;;;10.71;100.00;99189.03;5113327;28;20039;-43
2023/11/17 03:24:14;;;;;;;10.60;5.60;;;;;;;10.70;100.00;99192.63;5112866;28;20047;-45
2023/11/17 03:26:43;;;;;;;;;;;;;;;10.79;100.00;99191.09;5113475;28;20106;-45
2023/11/17 03:29:14;;;;;;;9.70;5.45;;;;;;;10.77;100.00;99183.19;5112999;28;19920;-45
2023/11/17 03:31:48;;;;;;;9.70;5.38;;;;;;;10.79;100.00;99183.06;5113128;28;20058;-44
2023/11/17 03:34:24;;;;;;;8.88;5.13;;;;;;;10.85;100.00;99167.44;5112865;28;20044;-45
2023/11/17 03:36:56;;;;;;;8.25;5.10;;;;;;;10.82;100.00;99178.38;5112914;28;20108;-44
2023/11/17 03:39:26;;;;;;;11.20;5.30;;;;;;;10.74;100.00;99170.13;5113105;28;20089;-43
2023/11/17 03:41:54;;;;;;;9.95;5.32;;;;;;;10.65;100.00;99168.16;5112643;28;20047;-43
2023/11/17 03:44:25;;;;;;;10.75;5.45;;;;;;;10.69;100.00;99161.59;5112994;28;20054;-45
2023/11/17 03:46:54;;;;;;;11.55;5.93;;;;;;;10.79;100.00;99162.59;5113019;28;20099;-45
2023/11/17 03:49:23;;;;;;;9.55;5.65;;;;;;;10.85;100.00;99159.44;5112090;28;20054;-44
2023/11/17 03:51:53;;;;;;;9.73;5.32;;;;;;;10.86;100.00;99157.63;5112707;28;20126;-45
2023/11/17 03:54:22;;;;;;;10.20;5.30;;;;;;;10.69;100.00;99142.94;5112659;28;20039;-44
2023/11/17 03:56:52;;;;;;;11.23;5.63;;;;;;;10.65;100.00;99144.16;5113124;28;20416;-44
2023/11/17 03:59:21;;;;;;;9.95;5.40;;;;;;;10.77;100.00;99143.19;5112436;28;20048;-43
2023/11/17 04:01:50;;;;;;;10.55;5.72;;;;;;;10.74;100.00;99140.78;5112352;28;20493;-45
2023/11/17 04:04:20;;;;;;;9.82;5.78;;;;;;;10.74;100.00;99148.78;5112332;28;20140;-43
2023/11/17 04:06:50;;;;;;;10.00;5.82;;;;;;;10.82;100.00;99135.69;5111901;28;20127;-43
2023/11/17 04:09:20;;;;;;;9.95;5.18;;;;;;;10.81;100.00;99130.47;5112434;28;20184;-43
2023/11/17 04:11:51;;;;;;;10.35;5.47;;;;;;;10.77;100.00;99131.69;5112063;28;20485;-44
2023/11/17 04:14:22;;;;;;;8.35;5.38;;;;;;;10.83;100.00;99131.19;5112117;28;20043;-44
2023/11/17 04:16:51;;;;;;;8.10;5.50;;;;;;;10.80;100.00;99137.59;5112352;28;20134;-44
2023/11/17 04:19:21;;;;;;;8.80;4.90;;;;;;;10.80;100.00;99132.28;5111812;28;20492;-45
2023/11/17 04:21:49;;;;;;;10.55;5.93;;;;;;;10.83;100.00;99142.72;5112590;28;20098;-44
2023/11/17 04:24:18;;;;;;;11.32;6.00;;;;;;;10.86;100.00;99142.47;5112378;28;20098;-44
2023/11/17 04:26:48;;;;;;;11.32;6.00;;;;;;;10.91;100.00;99136.78;5111793;28;20044;-44
2023/11/17 04:29:16;;;;;;;10.20;6.15;;;;;;;10.97;100.00;99127.44;5112008;28;20039;-44
2023/11/17 04:31:45;;;;;;;9.30;5.53;;;;;;;10.90;100.00;99132.41;5112023;28;20047;-44
2023/11/17 04:34:13;;;;;;;9.82;6.40;;;;;;;10.82;100.00;99135.69;5112863;28;20531;-44
2023/11/17 04:36:44;;;;;;;13.50;6.32;;;;;;;10.83;100.00;99136.53;5112337;28;20044;-45
2023/11/17 04:39:17;;;;;;;10.95;6.47;;;;;;;10.69;100.00;99140.28;5112073;28;20055;-44
2023/11/17 04:41:47;;;;;;;11.25;6.47;;;;;;;10.68;100.00;99133.25;5111745;28;20050;-44
2023/11/17 04:44:17;;;;;;;10.77;6.30;;;;;;;10.69;100.00;99140.28;5111918;28;20472;-43
2023/11/17 04:46:45;;;;;;;12.23;6.43;;;;;;;10.71;100.00;99134.81;5111537;28;20560;-44
2023/11/17 04:49:14;;;;;;;11.88;6.30;;;;;;;10.69;100.00;99137.59;5112206;28;20442;-44
2023/11/17 04:51:47;;;;;;;11.82;6.50;;;;;;;10.51;100.00;99147.03;5111656;28;20048;-44
2023/11/17 04:54:16;;;;;;;10.98;6.47;;;;;;;10.50;100.00;99145.34;5111907;28;20044;-45
2023/11/17 04:56:44;;;;;;;11.13;7.10;;;;;;;10.58;100.00;99137.59;5111696;28;20098;-43
2023/11/17 04:59:13;;;;;;;10.73;6.28;;;;;;;10.63;100.00;99140.78;5111693;28;20051;-43
2023/11/17 05:01:42;;;;;;;10.45;6.43;;;;;;;10.71;100.00;99135.69;5114421;28;20043;-44
2023/11/17 05:04:13;;;;;;;10.02;5.85;;;;;;;10.70;100.00;99141.97;5115807;28;20044;-44
2023/11/17 05:06:42;;;;;;;11.18;6.63;;;;;;;10.69;100.00;99134.09;5115770;28;20523;-43
2023/11/17 05:09:12;;;;;;;11.65;6.78;;;;;;;10.61;100.00;99132.00;5115598;28;20171;-44
2023/11/17 05:11:41;;;;;;;12.85;6.88;;;;;;;10.67;100.00;99131.53;5115536;28;20047;-44
2023/11/17 05:14:09;;;;;;;10.88;7.00;;;;;;;10.67;100.00;99131.53;5115641;28;20198;-44
2023/11/17 05:16:40;;;;;;;11.35;6.72;;;;;;;10.61;100.00;99121.34;5115585;28;20052;-44
2023/11/17 05:19:08;;;;;;;11.88;6.28;;;;;;;10.76;100.00;99119.31;5115283;28;20534;-43
2023/11/17 05:21:37;;;;;;;9.77;6.15;;;;;;;10.59;100.00;99125.97;5115468;28;20048;-44
2023/11/17 05:24:06;;;;;;;12.48;6.93;;;;;;;10.56;100.00;99134.22;5115259;28;20043;-43
2023/11/17 05:26:36;;;;;;;11.73;6.65;;;;;;;10.61;100.00;99129.34;5114347;28;20349;-42
2023/11/17 05:29:05;;;;;;;10.20;6.10;;;;;;;10.37;100.00;99134.78;5115178;28;20044;-44
2023/11/17 05:31:33;;;;;;;12.65;6.95;;;;;;;10.54;100.00;99146.81;5114983;28;20051;-42
2023/11/17 05:34:02;;;;;;;12.27;7.18;;;;;;;10.49;100.00;99143.63;5115217;28;20057;-43
2023/11/17 05:36:31;;;;;;;10.00;6.35;;;;;;;10.40;100.00;99139.88;5115123;28;20125;-43
2023/11/17 05:38:59;;;;;;;11.68;6.78;;;;;;;10.39;100.00;99142.66;5114765;28;20044;-43
2023/11/17 05:41:27;;;;;;;13.77;6.43;;;;;;;10.47;100.00;99145.59;5114016;28;20047;-44
2023/11/17 05:43:57;;;;;;;11.30;6.05;;;;;;;10.51;100.00;99139.03;5115234;28;20043;-44
2023/11/17 05:46:25;;;;;;;11.98;6.35;;;;;;;10.59;100.00;99144.63;5114133;28;20075;-44
2023/11/17 05:48:54;;;;;;;12.77;7.30;;;;;;;10.63;100.00;99139.94;5114850;28;20495;-44
2023/11/17 05:51:22;;;;;;;12.68;6.65;;;;;;;10.69;100.00;99134.94;5114323;28;20047;-44
2023/11/17 05:53:51;;;;;;;10.43;6.18;;;;;;;10.75;100.00;99138.97;5114946;28;20552;-44
2023/11/17 05:56:20;;;;;;;11.35;6.07;;;;;;;10.73;100.00;99141.75;5114815;28;20079;-44
2023/11/17 05:58:49;;;;;;;12.60;7.22;;;;;;;10.81;100.00;99144.66;5114645;28;20085;-45
2023/11/17 06:01:18;;;;;;;11.80;6.05;;;;;;;10.79;100.00;99145.72;5114213;28;20393;-46
2023/11/17 06:03:47;;;;;;;10.73;5.82;;;;;;;10.80;100.00;99148.28;5114497;28;20048;-45
2023/11/17 06:06:15;;;;;;;8.93;5.78;;;;;;;10.78;100.00;99146.72;5114522;28;20043;-44
2023/11/17 06:08:43;;;;;;;9.00;5.80;;;;;;;10.82;100.00;99149.03;5114945;28;20058;-44
2023/11/17 06:11:12;;;;;;;14.18;7.20;;;;;;;10.86;100.00;99157.63;5114267;28;20073;-45
2023/11/17 06:13:41;;;;;;;11.02;6.30;;;;;;;10.86;100.00;99146.97;5113549;28;20147;-47
2023/11/17 06:16:16;;;;;;;8.88;5.65;;;;;;;10.88;100.00;99148.53;5115066;28;20504;-44
2023/11/17 06:18:49;;;;;;;12.20;5.90;;;;;;;11.00;100.00;99148.53;5113801;28;20112;-44
2023/11/17 06:21:17;;;;;;;10.68;5.80;;;;;;;10.94;100.00;99154.38;5113717;28;20047;-44
2023/11/17 06:23:45;;;;;;;9.68;5.82;;;;;;;10.93;100.00;99147.34;5095744;28;20101;-45
2023/11/17 06:26:14;;;;;;;11.45;5.70;;;;;;;10.87;100.00;99152.16;5114156;28;20048;-44
2023/11/17 06:28:42;;;;;;;11.10;6.35;;;;;;;10.94;100.00;99149.03;5113838;28;20067;-43
2023/11/17 06:31:11;;;;;;;12.27;6.07;;;;;;;10.96;100.00;99152.41;5113471;28;20550;-44
2023/11/17 06:33:39;;;;;;;11.48;5.70;;;;;;;10.94;100.00;99143.69;5113655;28;20134;-48
2023/11/17 06:36:12;;;;;;;10.63;5.95;;;;;;;11.04;100.00;99147.31;5114002;28;20507;-44
2023/11/17 06:38:45;;;;;;;9.55;5.63;;;;;;;11.10;100.00;99149.53;5113702;28;20116;-44
2023/11/17 06:41:13;;;;;;;11.48;5.97;;;;;;;11.11;100.00;99151.22;5113062;28;20047;-43
2023/11/17 06:43:42;;;;;;;10.38;6.38;;;;;;;11.10;100.00;99152.19;5113245;28;20044;-45
2023/11/17 06:46:11;;;;;;;9.57;5.55;;;;;;;11.11;100.00;99151.22;5113275;28;20050;-44
2023/11/17 06:48:40;;;;;;;11.13;6.60;;;;;;;11.04;100.00;99150.00;5113709;28;20054;-44
2023/11/17 06:51:09;;;;;;;12.77;6.53;;;;;;;11.12;100.00;99148.41;5112989;28;20185;-43
2023/11/17 06:53:38;;;;;;;11.00;6.18;;;;;;;11.15;100.00;99141.97;5113552;28;20055;-46
2023/11/17 06:56:06;;;;;;;12.63;6.38;;;;;;;11.13;100.00;99138.59;5113413;28;20040;-45
2023/11/17 06:58:35;;;;;;;10.20;6.07;;;;;;;11.01;100.00;99142.25;5113185;28;20090;-45
2023/11/17 07:01:04;;;;;;;13.13;6.63;;;;;;;11.10;100.00;99149.53;5113115;28;20134;-44
2023/11/17 07:03:33;;;;;;;12.18;6.50;;;;;;;11.12;100.00;99155.56;5113463;28;20458;-44
2023/11/17 07:06:01;;;;;;;10.27;6.35;;;;;;;11.15;100.00;99158.84;5113091;28;20049;-44
2023/11/17 07:08:31;;;;;;;10.30;6.93;;;;;;;11.15;100.00;99158.84;5113033;28;20079;-45
2023/11/17 07:11:00;;;;;;;11.75;6.68;;;;;;;11.22;100.00;99164.53;5112924;28;20054;-44
2023/11/17 07:13:28;;;;;;;9.55;6.32;;;;;;;11.25;100.00;99158.94;5113129;28;20046;-46
2023/11/17 07:15:57;;;;;;;12.98;6.72;;;;;;;11.30;100.00;99161.28;5113103;28;20054;-44
2023/11/17 07:18:25;;;;;;;12.10;6.15;;;;;;;11.29;100.00;99164.88;5113009;28;20058;-44
2023/11/17 07:20:54;;;;;;;12.55;6.45;;;;;;;11.29;100.00;99168.44;5112801;28;20058;-44
2023/11/17 07:23:22;;;;;;;12.18;6.35;;;;;;;11.31;100.00;99161.13;5112663;28;20043;-43
2023/11/17 07:25:52;;;;;;;12.07;6.85;;;;;;;11.35;100.00;99157.25;5113205;28;20056;-43
2023/11/17 07:28:21;;;;;;;11.23;6.75;;;;;;;11.28;100.00;99152.50;5106156;28;20047;-44
2023/11/17 07:30:49;;;;;;;14.50;7.60;;;;;;;11.34;100.00;99147.53;5113589;28;20722;-44
2023/11/17 07:33:18;;;;;;;13.05;7.88;;;;;;;11.25;100.00;99150.94;5113010;28;20537;-44
2023/11/17 07:35:46;;;;;;;16.58;9.25;;;;;;;11.15;100.00;99150.84;5112870;28;20822;-45
2023/11/17 07:38:15;;;;;;;19.08;10.45;;;;;;;11.05;100.00;99149.03;5112918;28;20043;-44
2023/11/17 07:40:43;;;;;;;17.75;10.00;;;;;;;11.07;100.00;99144.41;5112923;28;20153;-44
2023/11/17 07:43:15;;;;;;;22.77;10.90;;;;;;;11.01;100.00;99145.75;5113014;28;20039;-43
2023/11/17 07:45:46;;;;;;;24.85;12.13;;;;;;;10.88;100.00;99145.00;5112611;28;20047;-45
2023/11/17 07:48:17;;;;;;;26.10;11.63;;;;;;;11.03;100.00;99148.31;5112744;28;20050;-44
2023/11/17 07:50:46;;;;;;;24.45;12.05;;;;;;;10.99;100.00;99149.50;5112673;28;20497;-45
2023/11/17 07:53:15;;;;;;;24.65;12.15;;;;;;;11.23;100.00;99160.06;5112736;28;20108;-44
2023/11/17 07:55:43;;;;;;;19.42;9.98;;;;;;;11.36;100.00;99169.59;5112636;28;20039;-44
2023/11/17 07:58:13;;;;;;;17.73;9.35;;;;;;;11.53;100.00;99167.41;5112556;28;20079;-45
2023/11/17 08:00:43;;;;;;;19.90;10.00;;;;;;;11.64;100.00;99160.22;5112352;28;20103;-45
2023/11/17 08:03:11;;;;;;;16.63;9.40;;;;;;;11.75;100.00;99162.00;5112161;28;20100;-45
2023/11/17 08:05:39;;;;;;;15.98;9.20;;;;;;;11.86;100.00;99159.31;5112682;28;20051;-45
2023/11/17 08:08:07;;;;;;;15.10;9.10;;;;;;;11.97;100.00;99161.97;5112291;28;20090;-45
2023/11/17 08:10:36;;;;;;;16.40;9.20;;;;;;;11.94;100.00;99167.56;5112123;28;20523;-44
2023/11/17 08:13:04;;;;;;;16.50;8.88;;;;;;;12.00;100.00;99177.75;5112483;28;20052;-43
2023/11/17 08:15:34;;;;;;;16.52;9.45;;;;;;;12.07;100.00;99182.59;5112209;28;20082;-43
2023/11/17 08:18:03;;;;;;;14.57;9.05;;;;;;;12.13;100.00;99182.91;5112274;28;20447;-44
2023/11/17 08:20:32;;;;;;;17.52;9.52;;;;;;;11.95;100.00;99179.94;5112340;28;20131;-45
2023/11/17 08:23:00;;;;;;;15.07;9.20;;;;;;;11.93;100.00;99175.72;5112186;28;20059;-45
2023/11/17 08:25:29;;;;;;;15.13;8.73;;;;;;;12.01;100.00;99178.59;5111979;28;20047;-44
2023/11/17 08:27:58;;;;;;;15.15;8.77;;;;;;;12.10;100.00;99180.50;5111636;28;20074;-43
2023/11/17 08:30:27;;;;;;;13.27;7.85;;;;;;;12.12;100.00;99180.38;5111620;28;20496;-45
2023/11/17 08:33:10;;;;;;;14.60;8.20;;;;;;;12.17;100.00;99188.88;5111552;28;20126;-43
2023/11/17 08:35:39;;;;;;;11.02;7.18;;;;;;;11.98;100.00;99194.91;5111198;28;20051;-44
2023/11/17 08:38:07;;;;;;;14.40;8.00;;;;;;;11.97;100.00;99199.38;5111720;28;20457;-44
2023/11/17 08:40:36;;;;;;;13.90;7.88;;;;;;;11.64;100.00;99202.09;5093550;28;20044;-43
2023/11/17 08:43:05;;;;;;;12.00;7.07;;;;;;;11.36;100.00;99204.31;5111403;28;20043;-44
2023/11/17 08:45:33;;;;;;;15.95;8.10;;;;;;;11.52;100.00;99203.09;5111388;28;20079;-45
2023/11/17 08:48:02;;;;;;;13.93;7.70;;;;;;;11.71;100.00;99211.31;5111043;28;20064;-44
2023/11/17 08:50:33;;;;;;;12.30;7.57;;;;;;;11.56;100.00;99209.88;5110664;28;20055;-45
2023/11/17 08:53:01;;;;;;;14.13;7.80;;;;;;;11.74;100.00;99221.75;5109377;28;20044;-44
2023/11/17 08:55:30;;;;;;;14.85;8.30;;;;;;;11.78;100.00;99214.34;5109116;28;20097;-44
2023/11/17 08:57:58;;;;;;;13.73;7.70;;;;;;;11.47;100.00;99214.97;5109173;28;20502;-44
2023/11/17 09:00:29;;;;;;;13.90;8.23;;;;;;;11.63;100.00;99227.13;5109623;28;20248;-44
2023/11/17 09:02:59;;;;;;;13.95;8.30;;;;;;;11.61;100.00;99229.91;5110532;28;20181;-43
2023/11/17 09:05:27;;;;;;;11.00;7.43;;;;;;;11.50;100.00;99232.59;5111459;28;20066;-44
2023/11/17 09:07:57;;;;;;;17.27;8.52;;;;;;;11.26;100.00;99242.56;5111014;28;20079;-44
2023/11/17 09:10:26;;;;;;;15.88;8.45;;;;;;;11.35;100.00;99239.16;5111208;28;20047;-46
2023/11/17 09:12:55;;;;;;;13.00;7.97;;;;;;;11.19;100.00;99247.50;5111297;28;20048;-43
2023/11/17 09:15:24;;;;;;;15.27;8.88;;;;;;;11.14;100.00;99252.38;5110968;28;20039;-42
2023/11/17 09:17:53;;;;;;;17.95;11.32;;;;;;;11.05;100.00;99255.75;5111149;28;20066;-42
2023/11/17 09:20:24;;;;;;;15.95;9.38;;;;;;;10.82;100.00;99252.22;5110927;28;20096;-44
2023/11/17 09:22:54;;;;;;;15.25;9.35;;;;;;;11.04;100.00;99251.41;5110928;28;20096;-44
2023/11/17 09:25:24;;;;;;;14.85;9.52;;;;;;;11.22;100.00;99259.78;5110865;28;20135;-44
2023/11/17 09:27:56;;;;;;;11.05;8.00;;;;;;;11.03;100.00;99257.72;5110941;28;20154;-44
2023/11/17 09:30:28;;;;;;;12.75;9.07;;;;;;;10.94;100.00;99264.59;5110984;28;20043;-44
2023/11/17 09:32:58;;;;;;;13.35;8.35;;;;;;;10.88;100.00;99263.25;5110962;28;20052;-44
2023/11/17 09:35:27;;;;;;;13.45;8.23;;;;;;;10.87;100.00;99266.03;5110925;28;20104;-44
2023/11/17 09:37:59;;;;;;;12.48;7.97;;;;;;;10.76;100.00;99266.00;5111079;28;20166;-44
2023/11/17 09:40:33;;;;;;;11.03;7.73;;;;;;;10.79;100.00;99257.75;5111306;28;20040;-43
2023/11/17 09:43:12;;;;;;;11.43;7.53;;;;;;;11.00;100.00;99265.94;5111099;28;20131;-42
2023/11/17 09:45:45;;;;;;;11.27;7.15;;;;;;;11.11;100.00;99253.47;5110960;28;20090;-44
2023/11/17 09:48:13;;;;;;;10.60;6.70;;;;;;;11.09;100.00;99257.22;5113111;28;20075;-43
2023/11/17 09:50:43;;;;;;;10.13;6.70;;;;;;;11.29;100.00;99252.97;5114784;28;20276;-45
2023/11/17 09:53:14;;;;;;;9.35;6.03;;;;;;;11.34;100.00;99250.81;5114681;28;20106;-44
2023/11/17 09:55:44;;;;;;;10.45;6.00;;;;;;;11.37;100.00;99251.41;5114408;28;20043;-44
2023/11/17 09:58:13;;;;;;;7.85;5.80;;;;;;;11.48;100.00;99239.88;5114191;28;20538;-45
2023/11/17 10:00:45;;;;;;;8.75;5.28;;;;;;;11.39;100.00;99237.97;5114639;28;20101;-42
2023/11/17 10:03:14;;;;;;;8.82;5.55;;;;;;;11.55;100.00;99234.91;5114321;28;20155;-44
2023/11/17 10:05:43;;;;;;;8.25;5.07;;;;;;;11.52;100.00;99240.50;5114396;28;20382;-43
2023/11/17 10:08:14;;;;;;;8.00;4.95;;;;;;;11.29;100.00;99245.84;5114250;28;20051;-43
2023/11/17 10:10:45;;;;;;;7.75;4.90;;;;;;;11.51;100.00;99239.63;5114132;28;20480;-45
2023/11/17 10:13:18;;;;;;;9.02;5.20;;;;;;;11.26;100.00;99242.56;5114353;28;20089;-43
2023/11/17 10:15:50;;;;;;;8.63;5.43;;;;;;;11.46;100.00;99240.00;5114456;28;20047;-44
2023/11/17 10:18:25;;;;;;;10.93;6.53;;;;;;;11.50;100.00;99234.44;5114153;28;20048;-43
2023/11/17 10:20:57;;;;;;;8.38;5.78;;;;;;;11.46;100.00;99242.66;5114151;28;20039;-43
2023/11/17 10:23:26;;;;;;;10.52;6.25;;;;;;;11.20;100.00;99240.38;5113905;28;20053;-43
2023/11/17 10:25:56;;;;;;;9.00;6.18;;;;;;;11.24;100.00;99249.84;5114222;28;20119;-44
2023/11/17 10:28:27;;;;;;;9.80;5.70;;;;;;;11.40;100.00;99240.50;5113981;28;20397;-43
2023/11/17 10:31:00;;;;;;;11.00;6.13;;;;;;;11.14;100.00;99247.03;5114371;28;20134;-44
2023/11/17 10:33:31;;;;;;;10.05;5.35;;;;;;;10.98;100.00;99242.03;5114111;28;20078;-44
2023/11/17 10:36:01;;;;;;;7.93;5.43;;;;;;;11.01;100.00;99244.50;5113732;28;20050;-44
2023/11/17 10:38:34;;;;;;;8.45;5.80;;;;;;;10.96;100.00;99243.13;5114359;28;20047;-42
2023/11/17 10:41:20;;;;;;;;;;;;;;;11.07;100.00;99245.81;5114670;28;20048;-43
2023/11/17 10:43:51;;;;;;;9.38;4.97;;;;;;;11.01;100.00;99241.81;5113754;28;19930;-44
2023/11/17 10:46:22;;;;;;;7.70;5.18;;;;;;;11.09;100.00;99238.53;5113812;28;20083;-44
2023/11/17 10:48:51;;;;;;;8.10;5.50;;;;;;;11.04;100.00;99246.06;5114088;28;20054;-43
2023/11/17 10:51:21;;;;;;;10.63;5.15;;;;;;;10.98;100.00;99230.50;5113932;28;20044;-43
2023/11/17 10:54:06;;;;;;;8.82;5.45;;;;;;;11.20;100.00;99229.72;5114490;28;20432;-45
2023/11/17 10:56:37;;;;;;;10.10;4.95;;;;;;;11.26;100.00;99235.38;5113839;28;20079;-44
2023/11/17 10:59:08;;;;;;;8.95;4.88;;;;;;;11.35;100.00;99241.81;5113274;28;20126;-43
2023/11/17 11:01:39;;;;;;;6.88;4.50;;;;;;;11.20;100.00;99238.56;5113724;28;20413;-43
2023/11/17 11:04:09;;;;;;;7.70;4.70;;;;;;;11.14;100.00;99239.03;5113208;28;20524;-44
2023/11/17 11:06:41;;;;;;;6.72;4.20;;;;;;;11.09;100.00;99246.53;5113455;28;20193;-43
2023/11/17 11:09:16;;;;;;;4.90;3.03;;;;;;;10.81;100.00;99246.03;5113034;28;20449;-42
2023/11/17 11:11:50;;;;;;;4.40;3.08;;;;;;;10.94;100.00;99240.59;5113567;28;20070;-44
2023/11/17 11:14:20;;;;;;;4.28;2.78;;;;;;;10.89;100.00;99248.94;5113630;28;20051;-42
2023/11/17 11:16:49;;;;;;;4.93;2.78;;;;;;;11.07;100.00;99245.81;5113179;28;20079;-42
2023/11/17 11:19:19;;;;;;;3.63;2.30;;;;;;;10.96;100.00;99237.78;5113023;28;20051;-41
2023/11/17 11:22:00;;;;;;;3.88;2.38;;;;;;;10.71;100.00;99242.38;5112900;28;20130;-44
2023/11/17 11:24:33;;;;;;;4.10;2.60;;;;;;;10.74;100.00;99260.81;5112604;28;20048;-42
2023/11/17 11:27:09;;;;;;;4.55;2.70;;;;;;;10.67;100.00;99258.72;5112761;28;20120;-43
2023/11/17 11:29:41;;;;;;;5.60;3.08;;;;;;;10.49;100.00;99251.13;5112736;28;20134;-42
2023/11/17 11:32:13;;;;;;;4.78;2.85;;;;;;;10.69;100.00;99246.94;5112550;28;20047;-42
2023/11/17 11:34:43;;;;;;;4.63;2.90;;;;;;;10.60;100.00;99247.66;5112898;28;20040;-42